Time;durP1;ratioP1;P1;durP2;ratioP2;P2;SDS_P1;SDS_P2;PMS_P1;PMS_P2;Temp;Humidity;BMP_temperature;BMP_pressure;BME280_temperature;BME280_humidity;BME280_pressure;Samples;Min_cycle;Max_cycle;Signal;HPM_P1;HPM_P2
2024/04/10 00:01:53;;;;;;;9.60;4.90;;;;;;;17.56;49.34;99552.14;102546;1267;138236;-79
2024/04/10 00:04:56;;;;;;;10.40;5.10;;;;;;;17.53;49.62;99551.63;102623;1267;99194;-76
2024/04/10 00:08:00;;;;;;;8.40;5.10;;;;;;;17.51;49.63;99552.65;102545;1270;138482;-81
2024/04/10 00:11:01;;;;;;;7.20;5.30;;;;;;;17.48;49.71;99554.83;102679;1266;99214;-80
2024/04/10 00:14:02;;;;;;;7.40;5.50;;;;;;;17.45;49.86;99559.03;102523;1270;139659;-80
2024/04/10 00:17:03;;;;;;;9.10;4.80;;;;;;;17.41;49.81;99556.89;102595;1266;107476;-78
2024/04/10 00:20:04;;;;;;;10.40;5.80;;;;;;;17.39;50.10;99556.70;102808;1266;138291;-77
2024/04/10 00:23:05;;;;;;;8.40;5.30;;;;;;;17.37;50.14;99560.53;102584;1267;107724;-78
2024/04/10 00:26:07;;;;;;;11.90;5.10;;;;;;;17.34;50.19;99561.76;102729;1267;138434;-77
2024/04/10 00:29:08;;;;;;;8.60;5.10;;;;;;;17.31;50.37;99563.92;102617;1265;112371;-78
2024/04/10 00:32:09;;;;;;;9.40;5.90;;;;;;;17.29;50.45;99568.51;102509;1267;138988;-78
2024/04/10 00:35:10;;;;;;;13.10;5.60;;;;;;;17.25;50.70;99569.47;102668;1267;99183;-78
2024/04/10 00:38:12;;;;;;;9.80;5.50;;;;;;;17.21;50.84;99569.20;102673;1267;137934;-78
2024/04/10 00:41:14;;;;;;;9.70;5.70;;;;;;;17.17;50.89;99568.05;102740;1267;99122;-77
2024/04/10 00:44:16;;;;;;;10.20;5.30;;;;;;;17.15;51.10;99569.13;102633;1267;138327;-76
2024/04/10 00:47:17;;;;;;;12.00;5.40;;;;;;;17.11;51.32;99569.90;102551;1270;107824;-75
2024/04/10 00:50:18;;;;;;;9.60;5.60;;;;;;;17.07;51.72;99571.46;102812;1266;99251;-77
2024/04/10 00:53:20;;;;;;;10.10;5.30;;;;;;;17.04;51.86;99570.23;102468;1267;108154;-76
2024/04/10 00:56:21;;;;;;;8.40;5.40;;;;;;;16.99;52.04;99577.40;102615;1269;99981;-78
2024/04/10 00:59:22;;;;;;;11.30;5.30;;;;;;;16.95;52.34;99584.60;102476;1270;112212;-78
2024/04/10 01:02:23;;;;;;;11.80;5.70;;;;;;;16.87;52.48;99580.55;102565;1267;109578;-77
2024/04/10 01:05:24;;;;;;;10.60;5.80;;;;;;;16.84;52.65;99588.09;102667;1269;99198;-76
2024/04/10 01:08:25;;;;;;;7.10;5.10;;;;;;;16.78;52.76;99591.67;102703;1264;108207;-77
2024/04/10 01:11:26;;;;;;;11.50;5.70;;;;;;;16.74;52.84;99586.15;102674;1263;99233;-76
2024/04/10 01:14:27;;;;;;;9.60;5.60;;;;;;;16.70;52.91;99589.60;102659;1269;111197;-77
2024/04/10 01:17:28;;;;;;;10.00;5.80;;;;;;;16.66;53.27;99591.98;102666;1267;107724;-77
2024/04/10 01:20:29;;;;;;;11.90;5.50;;;;;;;16.60;53.62;99591.64;102739;1270;99183;-77
2024/04/10 01:23:30;;;;;;;10.70;5.70;;;;;;;16.53;53.72;99591.77;102722;1264;107880;-76
2024/04/10 01:26:31;;;;;;;11.60;6.10;;;;;;;16.45;53.91;99590.36;102830;1264;99196;-78
2024/04/10 01:29:32;;;;;;;10.70;5.60;;;;;;;16.41;54.02;99592.42;102728;1269;112507;-78
2024/04/10 01:32:33;;;;;;;9.10;5.70;;;;;;;16.35;54.23;99590.34;102670;1264;108680;-77
2024/04/10 01:35:34;;;;;;;10.50;6.30;;;;;;;16.30;54.51;99596.08;102767;1268;99509;-78
2024/04/10 01:38:35;;;;;;;15.30;6.30;;;;;;;16.25;54.54;99600.84;102815;1269;108935;-77
2024/04/10 01:41:36;;;;;;;14.00;6.50;;;;;;;16.18;54.51;99605.30;102882;1266;99173;-76
2024/04/10 01:44:42;;;;;;;12.60;5.90;;;;;;;16.15;54.78;99600.41;102963;1264;111744;-77
2024/04/10 01:47:43;;;;;;;9.20;5.90;;;;;;;16.13;54.80;99599.66;102932;1270;106321;-77
2024/04/10 01:50:46;;;;;;;9.80;5.50;;;;;;;16.12;54.94;99605.90;102842;1264;99167;-78
2024/04/10 01:53:47;;;;;;;12.90;5.80;;;;;;;16.10;54.94;99611.81;102704;1264;107529;-77
2024/04/10 01:56:48;;;;;;;15.00;6.00;;;;;;;16.07;55.07;99613.77;102721;1264;99269;-77
2024/04/10 01:59:49;;;;;;;11.00;6.00;;;;;;;16.03;55.20;99615.61;102751;1264;113369;-76
2024/04/10 02:02:56;;;;;;;9.70;6.40;;;;;;;15.98;55.30;99612.23;102662;1264;108863;-77
2024/04/10 02:05:57;;;;;;;11.60;6.30;;;;;;;15.94;55.42;99608.95;102693;1264;99402;-77
2024/04/10 02:08:58;;;;;;;11.10;6.10;;;;;;;15.94;55.64;99613.23;102613;1269;107636;-77
2024/04/10 02:11:59;;;;;;;12.20;6.20;;;;;;;15.91;55.71;99612.16;102702;1264;99161;-77
2024/04/10 02:15:00;;;;;;;11.00;6.30;;;;;;;15.88;55.76;99615.69;102845;1270;112488;-76
2024/04/10 02:18:01;;;;;;;8.80;5.70;;;;;;;15.85;55.95;99619.57;102689;1263;108663;-77
2024/04/10 02:21:07;;;;;;;10.30;5.90;;;;;;;15.82;56.01;99617.87;102760;1264;99797;-77
2024/04/10 02:24:08;;;;;;;11.30;6.10;;;;;;;15.79;56.13;99621.16;102687;1269;107578;-76
2024/04/10 02:27:09;;;;;;;13.80;7.00;;;;;;;15.74;56.29;99623.95;102715;1263;99073;-76
2024/04/10 02:30:10;;;;;;;12.10;6.50;;;;;;;15.72;56.39;99623.55;102713;1269;113429;-76
2024/04/10 02:33:11;;;;;;;15.20;6.60;;;;;;;15.69;56.61;99623.73;102626;1264;109150;-79
2024/04/10 02:36:13;;;;;;;15.70;6.20;;;;;;;15.65;56.69;99620.84;102732;1264;100298;-78
2024/04/10 02:39:14;;;;;;;11.30;6.30;;;;;;;15.58;56.87;99621.23;102750;1267;106979;-80
2024/04/10 02:42:15;;;;;;;15.30;6.40;;;;;;;15.54;57.17;99625.02;102735;1264;99167;-80
2024/04/10 02:45:16;;;;;;;15.20;6.70;;;;;;;15.45;57.44;99632.20;102733;1264;113186;-79
2024/04/10 02:48:17;;;;;;;12.90;6.70;;;;;;;15.37;57.57;99635.30;102659;1267;107229;-78
2024/04/10 02:51:18;;;;;;;11.80;6.80;;;;;;;15.29;57.78;99638.82;102657;1263;99175;-75
2024/04/10 02:54:19;;;;;;;11.20;6.60;;;;;;;15.24;58.04;99642.27;101983;1264;1003095;-78
2024/04/10 02:57:20;;;;;;;11.20;7.10;;;;;;;15.18;58.39;99647.91;102668;1264;100541;-79
2024/04/10 03:00:22;;;;;;;16.70;6.30;;;;;;;15.13;58.51;99656.44;102744;1263;113262;-78
2024/04/10 03:03:23;;;;;;;15.80;6.90;;;;;;;15.09;58.75;99659.64;102824;1264;108014;-78
2024/04/10 03:06:24;;;;;;;13.50;7.00;;;;;;;15.06;58.87;99665.75;102746;1263;101983;-79
2024/04/10 03:09:25;;;;;;;14.00;7.30;;;;;;;15.05;59.02;99665.63;102715;1267;107249;-75
2024/04/10 03:12:27;;;;;;;10.20;7.20;;;;;;;15.03;59.23;99674.36;102652;1264;99207;-75
2024/04/10 03:15:28;;;;;;;11.10;6.90;;;;;;;15.00;59.46;99684.15;102719;1264;113389;-75
2024/04/10 03:18:29;;;;;;;12.50;7.00;;;;;;;14.97;59.52;99690.95;102693;1268;107369;-75
2024/04/10 03:21:30;;;;;;;9.90;6.50;;;;;;;14.97;59.78;99695.02;102727;1264;99682;-75
2024/04/10 03:24:31;;;;;;;12.30;6.70;;;;;;;15.01;59.95;99700.73;102755;1264;107564;-75
2024/04/10 03:27:32;;;;;;;10.40;6.40;;;;;;;15.13;60.07;99700.60;102783;1267;99176;-75
2024/04/10 03:30:33;;;;;;;12.70;7.00;;;;;;;15.19;60.03;99706.66;102717;1264;113623;-74
2024/04/10 03:33:34;;;;;;;11.30;6.60;;;;;;;15.21;59.97;99709.89;102632;1264;109166;-75
2024/04/10 03:36:35;;;;;;;11.70;7.10;;;;;;;15.23;60.07;99716.96;102725;1264;99698;-77
2024/04/10 03:39:36;;;;;;;15.20;6.80;;;;;;;15.24;60.08;99718.13;102647;1264;108752;-75
2024/04/10 03:42:37;;;;;;;15.10;7.10;;;;;;;15.25;60.17;99719.29;102883;1266;99185;-75
2024/04/10 03:45:38;;;;;;;15.30;7.80;;;;;;;15.27;60.33;99724.92;102693;1264;112280;-75
2024/04/10 03:48:39;;;;;;;10.00;7.70;;;;;;;15.29;60.28;99733.05;102657;1264;106741;-78
2024/04/10 03:51:40;;;;;;;11.20;7.90;;;;;;;15.26;60.38;99742.52;102733;1264;100871;-77
2024/04/10 03:54:41;;;;;;;16.20;8.20;;;;;;;15.24;60.51;99749.09;102691;1264;107053;-76
2024/04/10 03:57:47;;;;;;;14.80;8.60;;;;;;;15.22;60.72;99759.52;102661;1264;99183;-76
2024/04/10 04:00:48;;;;;;;15.10;8.80;;;;;;;15.17;60.95;99767.08;102638;1264;113152;-76
2024/04/10 04:03:49;;;;;;;13.20;8.50;;;;;;;15.05;61.29;99779.95;102651;1264;108180;-76
2024/04/10 04:06:50;;;;;;;13.50;8.60;;;;;;;14.99;61.67;99782.80;102703;1264;99084;-78
2024/04/10 04:09:51;;;;;;;13.90;8.50;;;;;;;14.97;61.87;99786.04;102633;1264;107690;-77
2024/04/10 04:12:52;;;;;;;12.70;8.50;;;;;;;14.94;61.90;99795.70;102689;1270;99212;-77
2024/04/10 04:15:53;;;;;;;12.10;8.40;;;;;;;14.88;62.14;99802.86;102712;1264;112911;-77
2024/04/10 04:18:54;;;;;;;14.20;8.30;;;;;;;14.83;62.41;99817.16;102590;1264;108089;-78
2024/04/10 04:21:55;;;;;;;15.50;8.60;;;;;;;14.76;62.59;99825.75;102805;1264;99721;-76
2024/04/10 04:24:56;;;;;;;16.50;9.20;;;;;;;14.75;62.93;99836.51;102805;1264;108882;-77
2024/04/10 04:27:57;;;;;;;16.00;9.30;;;;;;;14.81;63.29;99841.23;102646;1264;99160;-80
2024/04/10 04:30:58;;;;;;;16.40;9.30;;;;;;;14.91;63.53;99852.05;102595;1264;111571;-82
2024/04/10 04:33:59;;;;;;;10.60;8.90;;;;;;;15.05;63.73;99857.02;102894;1264;108115;-82
2024/04/10 04:37:00;;;;;;;18.30;9.60;;;;;;;15.22;63.80;99868.87;102692;1269;99822;-87
2024/04/10 04:40:01;;;;;;;17.30;9.40;;;;;;;15.40;63.85;99876.17;102755;1264;107240;-78
2024/04/10 04:43:07;;;;;;;16.10;9.70;;;;;;;15.63;64.04;99877.33;102746;1268;99202;-81
2024/04/10 04:46:11;;;;;;;16.20;9.30;;;;;;;15.87;63.73;99878.54;102736;1264;113206;-83
2024/04/10 04:49:12;;;;;;;16.50;8.60;;;;;;;16.11;63.42;99877.77;102746;1267;107989;-82
2024/04/10 04:52:13;;;;;;;18.90;9.20;;;;;;;16.37;63.09;99886.39;102757;1264;99736;-85
2024/04/10 04:55:15;;;;;;;13.50;9.20;;;;;;;16.64;62.90;99885.94;102714;1264;108225;-83
2024/04/10 04:58:16;;;;;;;19.00;9.90;;;;;;;16.89;62.45;99894.89;102717;1264;99885;-90
2024/04/10 05:01:22;;;;;;;16.80;9.70;;;;;;;17.25;62.06;99898.52;102755;1264;113227;-89
2024/04/10 05:07:41;;;;;;;14.90;9.30;;;;;;;18.00;60.80;99919.58;102601;1264;139151;-87
2024/04/10 05:10:42;;;;;;;20.40;9.30;;;;;;;18.38;60.12;99920.63;102773;1264;106452;-89
2024/04/10 05:13:43;;;;;;;15.10;9.50;;;;;;;18.80;59.40;99930.75;102662;1264;139958;-87
2024/04/10 05:16:44;;;;;;;15.40;8.90;;;;;;;19.18;58.58;99946.46;102766;1264;113064;-87
2024/04/10 05:19:46;;;;;;;16.80;9.20;;;;;;;19.58;57.85;99956.81;102550;1264;138824;-88
2024/04/10 05:22:47;;;;;;;17.40;9.00;;;;;;;19.98;57.14;99964.75;95430;1269;10224584;-88
2024/04/10 05:25:49;;;;;;;12.40;8.50;;;;;;;20.35;56.35;99971.28;102461;1263;138727;-69
2024/04/10 05:28:50;;;;;;;15.10;8.30;;;;;;;20.71;55.53;99979.29;102473;1266;111560;-68
2024/04/10 05:31:51;;;;;;;17.90;9.00;;;;;;;21.10;54.83;99985.19;102312;1265;139509;-68
2024/04/10 05:34:52;;;;;;;16.80;8.70;;;;;;;21.50;54.13;99989.55;102469;1264;99358;-68
2024/04/10 05:37:53;;;;;;;15.40;8.70;;;;;;;21.92;53.09;99993.38;102543;1264;138412;-67
2024/04/10 05:40:54;;;;;;;13.70;9.10;;;;;;;22.26;52.42;99999.90;102586;1269;99199;-68
2024/04/10 05:43:55;;;;;;;16.30;8.10;;;;;;;22.60;51.51;100005.50;102373;1264;138832;-68
2024/04/10 05:46:56;;;;;;;16.90;9.40;;;;;;;22.85;50.69;100009.00;102462;1264;108057;-69
2024/04/10 05:49:57;;;;;;;15.30;9.90;;;;;;;22.93;50.41;100018.90;102520;1269;138648;-68
2024/04/10 05:52:58;;;;;;;20.40;10.50;;;;;;;22.83;49.85;100023.55;102415;1264;110044;-67
2024/04/10 05:55:59;;;;;;;16.40;9.20;;;;;;;22.73;49.60;100030.25;102437;1263;138811;-67
2024/04/10 05:59:00;;;;;;;22.70;11.90;;;;;;;22.40;49.85;100038.92;102605;1264;113578;-67
2024/04/10 06:02:01;;;;;;;21.60;11.50;;;;;;;21.94;50.04;100053.00;102416;1259;139636;-68
2024/04/10 06:05:02;;;;;;;22.70;11.40;;;;;;;21.37;50.76;100058.39;103661;1260;99043;-77
2024/04/10 06:08:03;;;;;;;17.60;11.50;;;;;;;20.94;51.50;100069.33;102841;1259;139443;-76
2024/04/10 06:11:05;;;;;;;21.60;12.50;;;;;;;20.37;52.15;100081.98;103266;1259;98978;-76
2024/04/10 06:14:06;;;;;;;19.90;12.50;;;;;;;19.86;53.10;100088.46;102869;1259;138916;-78
2024/04/10 06:17:07;;;;;;;19.90;12.40;;;;;;;19.45;54.08;100091.91;102877;1259;107667;-75
2024/04/10 06:20:11;;;;;;;20.70;12.90;;;;;;;19.03;54.82;100099.66;103035;1262;139022;-78
2024/04/10 06:23:12;;;;;;;18.50;13.00;;;;;;;18.65;55.61;100103.84;103028;1261;107233;-78
2024/04/10 06:26:13;;;;;;;22.10;13.60;;;;;;;18.33;56.67;100105.27;103097;1259;139131;-77
2024/04/10 06:29:14;;;;;;;33.90;16.30;;;;;;;18.06;57.04;100109.88;103267;1259;114003;-78
2024/04/10 06:32:15;;;;;;;25.70;15.00;;;;;;;17.85;57.62;100118.48;102927;1260;139799;-78
2024/04/10 06:35:16;;;;;;;34.00;17.00;;;;;;;17.63;58.33;100123.52;103035;1259;99709;-78
2024/04/10 06:38:17;;;;;;;21.00;12.60;;;;;;;17.44;58.46;100136.13;103275;1261;139764;-78
2024/04/10 06:41:18;;;;;;;18.10;12.40;;;;;;;17.23;58.85;100136.91;102999;1264;99178;-79
2024/04/10 06:44:19;;;;;;;20.40;12.40;;;;;;;17.01;59.41;100147.77;102934;1260;139420;-79
2024/04/10 06:47:20;;;;;;;18.40;12.70;;;;;;;16.86;59.76;100150.59;102777;1259;107671;-78
2024/04/10 06:50:21;;;;;;;18.00;11.60;;;;;;;16.72;60.11;100153.67;103326;1262;139628;-77
2024/04/10 06:53:22;;;;;;;14.60;11.80;;;;;;;16.59;60.32;100164.05;102766;1259;107761;-76
2024/04/10 06:56:24;;;;;;;16.70;10.70;;;;;;;16.50;60.49;100165.50;102938;1259;139692;-77
2024/04/10 06:59:24;;;;;;;17.50;12.30;;;;;;;16.45;60.93;100172.65;103555;1259;112632;-79
2024/04/10 07:02:28;;;;;;;19.20;11.60;;;;;;;16.42;61.20;100176.52;102585;1261;139320;-79
2024/04/10 07:05:30;;;;;;;15.90;11.60;;;;;;;16.39;61.88;100182.63;103027;1260;99242;-78
2024/04/10 07:08:31;;;;;;;18.20;10.60;;;;;;;16.30;61.58;100194.89;102806;1260;139052;-78
2024/04/10 07:11:25;;;;;;;14.90;8.70;;;;;;;16.16;61.72;100200.77;102820;1265;99426;-73
2024/04/10 07:13:53;;;;;;;13.10;7.20;;;;;;;16.01;61.78;100210.54;102688;1260;139252;-76
2024/04/10 07:16:26;;;;;;;11.50;6.50;;;;;;;15.85;61.46;100220.91;102819;1262;107592;-74
2024/04/10 07:18:56;;;;;;;8.50;6.10;;;;;;;15.71;61.30;100227.96;102764;1261;99720;-76
2024/04/10 07:21:23;;;;;;;12.70;5.70;;;;;;;15.56;61.31;100235.94;102602;1265;139649;-75
2024/04/10 07:23:51;;;;;;;9.60;6.00;;;;;;;15.45;61.53;100238.06;102704;1262;99172;-73
2024/04/10 07:26:25;;;;;;;8.90;5.30;;;;;;;15.37;61.65;100244.78;102603;1262;138935;-74
2024/04/10 07:28:54;;;;;;;8.20;4.80;;;;;;;15.32;61.45;100249.27;102842;1263;107690;-73
2024/04/10 07:31:22;;;;;;;7.50;4.00;;;;;;;15.26;61.20;100252.73;103404;1261;99808;-73
2024/04/10 07:33:51;;;;;;;6.70;4.40;;;;;;;15.20;61.14;100253.91;102923;1262;107373;-73
2024/04/10 07:36:20;;;;;;;10.20;4.40;;;;;;;15.17;61.15;100260.40;102917;1263;99154;-75
2024/04/10 07:38:48;;;;;;;6.60;3.40;;;;;;;15.13;61.28;100251.48;102901;1265;139130;-74
2024/04/10 07:41:17;;;;;;;7.40;3.60;;;;;;;15.16;60.95;100263.94;102908;1265;107778;-73
2024/04/10 07:43:44;;;;;;;5.40;3.30;;;;;;;15.16;60.90;100270.63;102832;1262;139249;-73
2024/04/10 07:46:12;;;;;;;7.40;3.30;;;;;;;15.14;60.89;100272.98;102952;1265;106838;-74
2024/04/10 07:48:40;;;;;;;12.00;3.60;;;;;;;15.13;60.58;100283.88;103253;1262;99180;-73
2024/04/10 07:51:13;;;;;;;6.20;3.20;;;;;;;15.13;60.58;100290.71;102785;1260;139003;-74
2024/04/10 07:53:41;;;;;;;7.70;3.20;;;;;;;15.16;60.43;100296.90;102830;1262;108232;-72
2024/04/10 07:56:09;;;;;;;10.10;2.90;;;;;;;15.21;60.32;100296.80;102842;1262;139797;-75
2024/04/10 07:58:37;;;;;;;6.20;2.30;;;;;;;15.23;59.82;100303.86;102814;1265;107905;-73
2024/04/10 08:01:05;;;;;;;8.70;2.60;;;;;;;15.22;59.56;100307.23;102841;1262;99192;-76
2024/04/10 08:03:34;;;;;;;9.10;2.60;;;;;;;15.22;59.17;100312.98;102743;1265;139145;-74
2024/04/10 08:06:03;;;;;;;10.90;2.40;;;;;;;15.23;58.85;100316.30;102958;1265;108819;-73
2024/04/10 08:08:31;;;;;;;8.40;2.30;;;;;;;15.27;58.63;100319.43;102784;1262;139636;-70
2024/04/10 08:11:01;;;;;;;3.60;2.10;;;;;;;15.33;58.58;100320.38;103034;1261;107637;-69
2024/04/10 08:13:29;;;;;;;7.40;1.90;;;;;;;15.41;58.25;100320.98;103066;1262;139380;-69
2024/04/10 08:16:00;;;;;;;19.80;2.40;;;;;;;15.50;57.97;100326.16;102910;1265;112967;-70
2024/04/10 08:18:28;;;;;;;4.10;1.80;;;;;;;15.59;57.65;100329.86;102774;1265;106679;-70
2024/04/10 08:21:03;;;;;;;9.00;2.00;;;;;;;15.67;57.24;100335.78;102882;1261;139081;-69
2024/04/10 08:23:31;;;;;;;6.20;2.20;;;;;;;15.76;56.87;100337.42;102759;1265;108334;-70
2024/04/10 08:25:59;;;;;;;8.80;2.10;;;;;;;15.85;56.45;100339.63;102795;1265;138521;-71
2024/04/10 08:28:27;;;;;;;8.00;2.10;;;;;;;15.93;55.85;100335.15;103013;1262;113014;-72
2024/04/10 08:30:54;;;;;;;12.60;2.60;;;;;;;16.07;55.80;100346.01;102823;1265;107140;-69
2024/04/10 08:33:22;;;;;;;6.60;2.10;;;;;;;16.27;55.89;100352.95;102801;1262;140108;-72
2024/04/10 08:35:55;;;;;;;8.90;1.80;;;;;;;16.47;55.27;100351.71;102906;1261;107939;-72
2024/04/10 08:38:23;;;;;;;7.30;2.20;;;;;;;16.64;54.69;100357.08;103133;1265;140051;-72
2024/04/10 08:40:53;;;;;;;8.70;2.10;;;;;;;16.78;54.01;100354.40;103226;1262;111561;-73
2024/04/10 08:43:21;;;;;;;6.60;1.90;;;;;;;16.89;53.76;100350.61;103433;1261;107953;-69
2024/04/10 08:45:48;;;;;;;5.90;1.80;;;;;;;16.99;52.91;100352.35;102943;1261;99060;-70
2024/04/10 08:48:16;;;;;;;6.30;1.90;;;;;;;17.09;52.57;100357.90;102860;1262;108273;-69
2024/04/10 08:50:43;;;;;;;11.70;2.40;;;;;;;17.19;51.83;100357.14;102987;1265;138289;-69
2024/04/10 08:53:13;;;;;;;8.40;2.30;;;;;;;17.31;51.52;100366.64;102980;1262;113302;-71
2024/04/10 08:55:40;;;;;;;8.20;2.70;;;;;;;17.48;51.50;100373.17;103108;1262;138684;-69
2024/04/10 08:58:20;;;;;;;20.90;4.10;;;;;;;17.66;50.79;100374.29;103109;1264;99631;-71
2024/04/10 09:00:47;;;;;;;11.00;2.00;;;;;;;17.83;50.35;100383.30;103074;1261;107993;-73
2024/04/10 09:03:15;;;;;;;15.20;2.10;;;;;;;18.20;50.02;100389.65;102776;1262;138451;-73
2024/04/10 09:05:42;;;;;;;18.60;2.90;;;;;;;18.74;49.38;100390.30;104158;1262;111843;-74
2024/04/10 09:08:10;;;;;;;18.50;2.60;;;;;;;19.56;48.47;100389.39;104050;1262;138966;-74
2024/04/10 09:10:37;;;;;;;10.50;2.20;;;;;;;20.54;47.60;100390.88;104191;1260;97201;-73
2024/04/10 09:13:09;;;;;;;9.80;2.40;;;;;;;21.51;46.93;100393.36;104214;1262;107671;-73
2024/04/10 09:15:37;;;;;;;14.40;2.40;;;;;;;22.58;45.36;100396.00;104062;1260;138170;-73
2024/04/10 09:18:04;;;;;;;6.10;2.10;;;;;;;23.37;43.03;100392.27;104184;1262;112351;-72
2024/04/10 09:20:32;;;;;;;12.20;2.40;;;;;;;23.99;41.95;100398.50;104063;1262;138474;-74
2024/04/10 09:23:04;;;;;;;9.80;2.20;;;;;;;24.54;40.39;100402.18;104217;1261;96997;-73
2024/04/10 09:25:31;;;;;;;11.50;2.50;;;;;;;25.21;39.72;100398.81;104097;1261;138249;-73
2024/04/10 09:28:02;;;;;;;9.00;2.40;;;;;;;25.68;37.91;100392.39;104165;1261;97885;-73
2024/04/10 09:30:29;;;;;;;8.00;2.70;;;;;;;25.83;36.47;100391.70;104217;1262;112107;-74
2024/04/10 09:32:58;;;;;;;9.00;2.00;;;;;;;25.86;36.49;100402.44;103969;1263;138658;-73
2024/04/10 09:35:27;;;;;;;8.20;2.70;;;;;;;26.07;36.06;100413.83;102945;1261;99165;-72
2024/04/10 09:37:55;;;;;;;10.70;2.80;;;;;;;26.19;35.49;100409.48;102714;1260;138396;-74
2024/04/10 09:40:25;;;;;;;9.90;2.40;;;;;;;26.28;35.75;100413.11;103388;1261;99314;-71
2024/04/10 09:42:57;;;;;;;4.90;3.10;;;;;;;26.52;35.12;100411.34;102981;1262;111886;-72
2024/04/10 09:45:29;;;;;;;7.20;2.30;;;;;;;26.59;34.79;100419.80;102664;1265;138419;-72
2024/04/10 09:48:01;;;;;;;9.70;2.30;;;;;;;26.68;34.77;100420.24;102763;1265;99820;-72
2024/04/10 09:50:34;;;;;;;6.00;2.10;;;;;;;26.80;34.07;100430.70;102662;1262;138206;-73
2024/04/10 09:53:02;;;;;;;7.80;1.90;;;;;;;26.82;33.32;100441.26;102681;1262;99160;-73
2024/04/10 09:55:32;;;;;;;5.80;2.20;;;;;;;26.75;33.50;100435.48;102959;1260;138170;-70
2024/04/10 09:57:59;;;;;;;23.70;2.70;;;;;;;26.69;33.80;100435.50;102871;1260;108058;-73
2024/04/10 10:00:27;;;;;;;12.90;2.20;;;;;;;26.72;33.27;100446.05;102923;1261;99194;-72
2024/04/10 10:03:05;;;;;;;11.80;2.30;;;;;;;26.60;32.74;100442.66;102708;1260;137138;-72
2024/04/10 10:05:33;;;;;;;13.10;2.70;;;;;;;26.67;33.15;100444.67;103066;1264;99215;-76
2024/04/10 10:08:13;;;;;;;13.80;2.80;;;;;;;26.64;32.67;100446.05;102740;1262;138293;-75
2024/04/10 10:10:50;;;;;;;12.30;3.10;;;;;;;26.53;32.50;100457.39;102779;1263;108473;-83
2024/04/10 10:13:28;;;;;;;11.70;2.30;;;;;;;26.43;32.56;100462.99;102607;1262;98176;-78
2024/04/10 10:15:59;;;;;;;6.80;2.10;;;;;;;26.36;32.22;100466.38;102855;1261;107090;-76
2024/04/10 10:18:27;;;;;;;5.40;1.70;;;;;;;26.15;32.26;100468.63;102611;1262;99642;-77
2024/04/10 10:21:08;;;;;;;7.00;1.90;;;;;;;26.15;32.77;100475.21;102731;1265;138128;-77
2024/04/10 10:23:35;;;;;;;8.50;2.40;;;;;;;26.24;31.98;100475.34;102777;1265;108166;-75
2024/04/10 10:26:03;;;;;;;8.40;2.30;;;;;;;26.04;32.16;100481.83;102701;1263;139244;-76
2024/04/10 10:28:31;;;;;;;7.80;2.00;;;;;;;25.84;32.27;100486.90;102788;1261;108283;-75
2024/04/10 10:31:07;;;;;;;5.00;2.10;;;;;;;25.86;32.88;100491.86;102781;1262;99163;-76
2024/04/10 10:33:34;;;;;;;8.90;1.90;;;;;;;25.95;32.76;100491.09;102725;1262;138026;-74
2024/04/10 10:36:01;;;;;;;7.00;2.00;;;;;;;26.16;33.40;100492.48;102656;1262;109195;-76
2024/04/10 10:38:28;;;;;;;6.00;2.50;;;;;;;26.27;32.81;100488.06;102415;1262;138487;-75
2024/04/10 10:40:55;;;;;;;5.30;2.00;;;;;;;26.19;32.65;100490.98;102710;1265;107916;-74
2024/04/10 10:43:22;;;;;;;7.50;2.00;;;;;;;26.04;32.07;100499.83;102853;1262;99192;-75
2024/04/10 10:45:50;;;;;;;7.90;1.80;;;;;;;25.95;32.36;100502.12;102916;1260;139365;-76
2024/04/10 10:48:17;;;;;;;7.00;2.20;;;;;;;25.81;32.41;100501.76;102765;1265;107053;-76
2024/04/10 10:50:45;;;;;;;4.80;2.00;;;;;;;25.65;32.28;100510.99;102585;1264;138201;-76
2024/04/10 10:53:14;;;;;;;5.80;1.90;;;;;;;25.60;32.43;100510.05;102783;1264;107202;-67
2024/04/10 10:55:51;;;;;;;6.10;2.30;;;;;;;25.51;32.50;100515.38;102893;1262;138389;-71
2024/04/10 10:58:18;;;;;;;8.80;2.30;;;;;;;25.29;32.68;100519.80;102830;1265;111911;-66
2024/04/10 11:00:45;;;;;;;8.40;2.10;;;;;;;25.12;33.24;100525.77;102999;1261;106804;-66
2024/04/10 11:03:16;;;;;;;9.10;2.30;;;;;;;25.10;33.07;100527.55;102829;1262;138155;-65
2024/04/10 11:05:55;;;;;;;8.30;2.80;;;;;;;24.99;33.12;100533.86;102821;1265;108282;-65
2024/04/10 11:08:25;;;;;;;5.40;2.10;;;;;;;24.87;32.99;100533.70;102816;1265;139314;-67
2024/04/10 11:10:53;;;;;;;10.10;2.50;;;;;;;24.66;33.23;100534.06;102933;1262;113967;-67
2024/04/10 11:13:20;;;;;;;7.10;1.90;;;;;;;24.56;33.13;100533.89;102842;1263;107524;-70
2024/04/10 11:15:49;;;;;;;7.10;2.00;;;;;;;24.46;33.27;100534.72;102944;1261;139296;-70
2024/04/10 11:18:17;;;;;;;4.30;1.70;;;;;;;24.40;33.25;100540.08;102851;1265;108411;-70
2024/04/10 11:20:44;;;;;;;7.10;2.10;;;;;;;24.30;33.13;100543.27;102908;1264;138270;-69
2024/04/10 11:23:12;;;;;;;4.80;1.70;;;;;;;24.16;33.22;100542.92;102833;1261;112023;-70
2024/04/10 11:25:39;;;;;;;8.10;2.10;;;;;;;24.03;33.53;100542.39;102777;1265;139741;-70
2024/04/10 11:28:07;;;;;;;7.70;2.20;;;;;;;23.99;33.70;100545.77;102772;1262;99573;-71
2024/04/10 11:30:35;;;;;;;11.30;2.00;;;;;;;23.95;33.95;100553.39;102805;1261;107080;-72
2024/04/10 11:33:03;;;;;;;6.30;1.80;;;;;;;23.98;34.22;100558.90;102662;1265;138787;-71
2024/04/10 11:35:31;;;;;;;7.50;1.90;;;;;;;23.96;34.31;100559.88;103072;1265;111574;-71
2024/04/10 11:37:59;;;;;;;8.40;2.00;;;;;;;23.93;34.28;100568.36;102698;1265;138364;-72
2024/04/10 11:40:26;;;;;;;7.00;2.20;;;;;;;23.82;34.12;100575.64;102760;1265;99607;-71
2024/04/10 11:42:54;;;;;;;10.80;2.40;;;;;;;23.63;34.19;100575.82;102751;1264;108659;-71
2024/04/10 11:45:21;;;;;;;12.40;2.40;;;;;;;23.54;34.59;100582.00;103127;1262;138543;-70
2024/04/10 11:47:48;;;;;;;6.40;1.80;;;;;;;23.38;34.65;100590.38;102758;1264;112440;-72
2024/04/10 11:50:17;;;;;;;10.00;2.00;;;;;;;23.25;35.07;100600.14;102660;1261;138222;-70
2024/04/10 11:52:45;;;;;;;6.40;2.00;;;;;;;23.23;35.14;100605.08;102941;1262;99338;-71
2024/04/10 11:55:12;;;;;;;5.80;2.70;;;;;;;23.16;34.99;100606.30;102873;1261;108513;-68
2024/04/10 11:57:39;;;;;;;8.90;1.90;;;;;;;23.05;34.98;100608.08;102631;1265;137197;-70
2024/04/10 12:00:09;;;;;;;9.80;2.00;;;;;;;23.04;35.32;100601.63;103048;1265;111735;-70
2024/04/10 12:02:40;;;;;;;6.60;1.50;;;;;;;23.10;35.64;100609.11;103042;1265;138149;-71
2024/04/10 12:05:08;;;;;;;11.10;2.30;;;;;;;23.09;35.54;100612.16;102916;1262;100815;-70
2024/04/10 12:07:36;;;;;;;5.80;1.80;;;;;;;23.14;35.55;100614.45;102824;1262;138707;-71
2024/04/10 12:10:04;;;;;;;5.10;2.00;;;;;;;23.20;35.55;100615.20;102726;1262;99201;-74
2024/04/10 12:12:31;;;;;;;8.50;1.70;;;;;;;23.20;35.26;100616.34;103096;1261;112718;-74
2024/04/10 12:14:58;;;;;;;5.90;2.30;;;;;;;23.09;35.22;100617.39;102650;1262;138515;-73
2024/04/10 12:17:26;;;;;;;5.40;2.40;;;;;;;22.91;35.19;100616.43;103161;1262;99183;-74
2024/04/10 12:19:53;;;;;;;4.70;1.60;;;;;;;22.74;35.65;100623.40;103008;1265;138267;-73
2024/04/10 12:22:20;;;;;;;8.80;2.90;;;;;;;22.73;36.12;100629.48;103408;1261;99940;-72
2024/04/10 12:24:47;;;;;;;6.90;2.30;;;;;;;22.72;36.03;100632.05;102702;1265;114977;-74
2024/04/10 12:27:14;;;;;;;9.50;2.10;;;;;;;22.67;35.87;100632.48;102601;1264;138338;-79
2024/04/10 12:29:41;;;;;;;23.30;3.40;;;;;;;22.63;35.97;100629.97;102882;1265;99672;-72
2024/04/10 12:32:09;;;;;;;4.70;2.10;;;;;;;22.52;36.06;100631.31;102885;1265;138400;-75
2024/04/10 12:34:37;;;;;;;6.50;1.80;;;;;;;22.43;36.17;100633.94;103219;1265;99064;-74
2024/04/10 12:39:50;;;;;;;4.30;1.80;;;;;;;22.13;36.05;100637.98;102812;1265;106878;-69